createdAt,value
2022-08-17T00:00:34.281Z,15.40
2022-08-17T00:03:09.056Z,17.67
2022-08-17T00:05:44.547Z,19.92
2022-08-17T00:08:15.580Z,16.98
2022-08-17T00:10:45.360Z,17.83
2022-08-17T00:13:15.974Z,14.77
2022-08-17T00:15:44.963Z,17.17
2022-08-17T00:19:01.411Z,17.38
2022-08-17T00:21:02.987Z,16.77
2022-08-17T00:23:33.030Z,13.80
2022-08-17T00:26:01.106Z,14.75
2022-08-17T00:28:29.374Z,15.93
2022-08-17T00:31:01.243Z,15.65
2022-08-17T00:33:32.986Z,13.98
2022-08-17T00:36:02.014Z,14.30
2022-08-17T00:38:30.896Z,14.98
2022-08-17T00:41:03.612Z,16.60
2022-08-17T00:43:36.029Z,15.98
2022-08-17T00:46:08.222Z,16.75
2022-08-17T00:48:36.841Z,15.05
2022-08-17T00:51:10.848Z,20.73
2022-08-17T00:53:41.993Z,16.40
2022-08-17T00:56:16.103Z,14.65
2022-08-17T00:58:44.314Z,16.02
2022-08-17T01:01:21.820Z,15.13
2022-08-17T01:03:52.284Z,14.98
2022-08-17T01:06:22.149Z,15.55
2022-08-17T01:08:57.753Z,15.60
2022-08-17T01:11:28.358Z,20.27
2022-08-17T01:13:56.361Z,16.80
2022-08-17T01:16:27.001Z,16.67
2022-08-17T01:18:58.333Z,17.15
2022-08-17T01:21:33.800Z,17.88
2022-08-17T01:24:04.681Z,20.85
2022-08-17T01:26:34.314Z,18.92
2022-08-17T01:29:04.146Z,15.50
2022-08-17T01:31:36.367Z,16.67
2022-08-17T01:34:08.327Z,19.63
2022-08-17T01:36:37.144Z,19.90
2022-08-17T01:39:10.873Z,19.35
2022-08-17T01:41:41.545Z,25.13
2022-08-17T01:44:10.793Z,17.27
2022-08-17T01:46:39.042Z,18.83
2022-08-17T01:49:09.108Z,17.80
2022-08-17T01:51:37.337Z,17.50
2022-08-17T01:54:11.626Z,20.13
2022-08-17T01:56:42.882Z,17.27
2022-08-17T01:59:10.819Z,19.33
2022-08-17T02:01:39.117Z,17.13
2022-08-17T02:04:08.459Z,18.08
2022-08-17T02:06:52.661Z,18.45
2022-08-17T02:09:25.333Z,18.85
2022-08-17T02:11:54.819Z,22.00
2022-08-17T02:14:25.292Z,19.02
2022-08-17T02:16:53.384Z,18.42
2022-08-17T02:19:22.081Z,20.63
2022-08-17T02:21:52.957Z,21.20
2022-08-17T02:24:58.499Z,19.80
2022-08-17T02:27:16.651Z,18.77
2022-08-17T02:29:44.641Z,18.65
2022-08-17T02:32:22.275Z,20.40
2022-08-17T02:34:55.728Z,19.90
2022-08-17T02:37:23.821Z,20.17
2022-08-17T02:39:53.351Z,22.60
2022-08-17T02:42:27.878Z,21.63
2022-08-17T02:44:55.922Z,21.60
2022-08-17T02:47:24.635Z,19.77
2022-08-17T02:49:54.287Z,27.67
2022-08-17T02:52:42.473Z,23.45
2022-08-17T02:55:16.310Z,22.45
2022-08-17T02:57:44.270Z,26.15
2022-08-17T03:00:15.590Z,21.33
2022-08-17T03:02:45.414Z,20.45
2022-08-17T03:05:16.294Z,20.95
2022-08-17T03:07:44.352Z,25.05
2022-08-17T03:10:14.422Z,21.70
2022-08-17T03:12:43.788Z,23.98
2022-08-17T03:15:14.050Z,23.48
2022-08-17T03:17:42.401Z,23.27
2022-08-17T03:20:11.407Z,24.88
2022-08-17T03:22:41.346Z,24.48
2022-08-17T03:25:20.170Z,24.23
2022-08-17T03:27:51.516Z,23.73
2022-08-17T03:30:22.511Z,24.67
2022-08-17T03:32:56.216Z,28.17
2022-08-17T03:35:26.630Z,24.48
2022-08-17T03:38:00.062Z,24.20
2022-08-17T03:40:43.780Z,23.75
2022-08-17T03:43:20.071Z,23.83
2022-08-17T03:46:23.997Z,26.40
2022-08-17T03:49:12.046Z,27.05
2022-08-17T03:51:57.647Z,24.65
2022-08-17T03:54:42.964Z,25.50
2022-08-17T03:57:13.523Z,25.77
2022-08-17T03:59:42.003Z,27.52
2022-08-17T04:02:13.526Z,26.63
2022-08-17T04:04:41.786Z,26.35
2022-08-17T04:07:09.705Z,25.08
2022-08-17T04:09:38.023Z,25.73
2022-08-17T04:12:07.231Z,27.08
2022-08-17T04:14:51.637Z,25.17
2022-08-17T04:17:22.580Z,26.38
2022-08-17T04:19:50.498Z,27.42
2022-08-17T04:22:32.049Z,27.48
2022-08-17T04:25:09.013Z,27.05
2022-08-17T04:27:37.514Z,28.20
2022-08-17T04:30:08.425Z,26.95
2022-08-17T04:33:09.852Z,25.23
2022-08-17T04:35:39.978Z,27.92
2022-08-17T04:38:12.276Z,26.60
2022-08-17T04:40:58.270Z,26.05
2022-08-17T04:43:28.304Z,27.35
2022-08-17T04:46:00.265Z,27.00
2022-08-17T04:48:36.233Z,27.83
2022-08-17T04:51:08.015Z,26.73
2022-08-17T04:53:36.517Z,27.38
2022-08-17T04:56:05.315Z,27.55
2022-08-17T04:58:33.758Z,26.75
2022-08-17T05:01:03.432Z,26.80
2022-08-17T05:03:32.612Z,25.95
2022-08-17T05:06:00.680Z,26.17
2022-08-17T05:08:28.693Z,26.92
2022-08-17T05:10:56.873Z,26.58
2022-08-17T05:13:26.357Z,27.48
2022-08-17T05:15:57.163Z,27.65
2022-08-17T05:18:26.677Z,26.73
2022-08-17T05:20:55.048Z,27.13
2022-08-17T05:23:25.135Z,26.15
2022-08-17T05:25:56.390Z,26.42
2022-08-17T05:28:28.000Z,27.73
2022-08-17T05:30:59.374Z,25.55
2022-08-17T05:33:31.442Z,26.88
2022-08-17T05:36:00.887Z,27.30
2022-08-17T05:38:30.735Z,28.92
2022-08-17T05:40:59.797Z,28.35
2022-08-17T05:43:30.116Z,27.10
2022-08-17T05:46:05.384Z,27.55
2022-08-17T05:48:40.170Z,27.60
2022-08-17T05:51:22.089Z,27.58
2022-08-17T05:53:59.661Z,27.63
2022-08-17T05:56:50.233Z,27.80
2022-08-17T05:59:27.812Z,27.38
2022-08-17T06:02:04.189Z,26.67
2022-08-17T06:04:45.378Z,25.20
2022-08-17T06:07:22.806Z,25.25
2022-08-17T06:09:58.694Z,25.08
2022-08-17T06:12:38.690Z,24.40
2022-08-17T06:15:24.654Z,22.52
2022-08-17T06:17:55.847Z,22.60
2022-08-17T06:20:28.314Z,22.63
2022-08-17T06:23:03.885Z,22.08
2022-08-17T06:25:36.015Z,22.25
2022-08-17T06:28:07.288Z,21.42
2022-08-17T06:30:59.944Z,20.52
2022-08-17T06:33:34.418Z,20.90
2022-08-17T06:36:10.246Z,22.17
2022-08-17T06:38:52.110Z,20.85
2022-08-17T06:41:27.616Z,19.67
2022-08-17T06:44:07.665Z,19.50
2022-08-17T06:46:39.329Z,17.77
2022-08-17T06:49:17.881Z,18.67
2022-08-17T06:51:52.586Z,18.65
2022-08-17T06:54:30.070Z,18.42
2022-08-17T06:57:01.801Z,18.63
2022-08-17T06:59:55.018Z,19.15
2022-08-17T07:02:52.431Z,18.13
2022-08-17T07:05:24.874Z,19.60
2022-08-17T07:08:05.204Z,18.25
2022-08-17T07:10:39.647Z,18.20
2022-08-17T07:13:30.703Z,19.52
2022-08-17T07:16:14.826Z,18.58
2022-08-17T07:18:43.780Z,18.70
2022-08-17T07:21:26.534Z,17.83
2022-08-17T07:24:08.065Z,18.20
2022-08-17T07:26:36.004Z,16.63
2022-08-17T07:29:04.029Z,16.90
2022-08-17T07:31:33.660Z,16.17
2022-08-17T07:34:08.525Z,14.23
2022-08-17T07:36:36.449Z,17.05
2022-08-17T07:39:06.168Z,17.55
2022-08-17T07:41:57.895Z,15.13
2022-08-17T07:44:27.677Z,16.08
2022-08-17T07:47:14.621Z,15.80
2022-08-17T07:49:46.107Z,16.08
2022-08-17T07:52:48.063Z,16.02
2022-08-17T07:55:29.619Z,16.55
2022-08-17T07:57:59.089Z,15.20
2022-08-17T08:00:32.648Z,15.85
2022-08-17T08:03:16.101Z,15.27
2022-08-17T08:05:56.398Z,15.38
2022-08-17T08:08:29.299Z,16.02
2022-08-17T08:11:07.145Z,16.30
2022-08-17T08:13:42.536Z,14.48
2022-08-17T08:16:22.611Z,13.57
2022-08-17T08:18:57.570Z,14.57
2022-08-17T08:21:34.511Z,14.27
2022-08-17T08:24:19.913Z,14.20
2022-08-17T08:26:58.050Z,14.27
2022-08-17T08:29:35.745Z,14.45
2022-08-17T08:32:11.373Z,13.30
2022-08-17T08:35:01.525Z,12.80
2022-08-17T08:37:43.007Z,13.20
2022-08-17T08:40:29.952Z,13.13
2022-08-17T08:43:09.357Z,13.20
2022-08-17T08:45:47.133Z,13.38
2022-08-17T08:48:58.303Z,13.45
2022-08-17T08:51:39.866Z,11.95
2022-08-17T08:54:20.240Z,13.15
2022-08-17T08:57:23.173Z,13.18
2022-08-17T09:00:05.443Z,16.60
2022-08-17T09:02:57.715Z,12.98
2022-08-17T09:05:39.328Z,11.80
2022-08-17T09:08:31.989Z,14.30
2022-08-17T09:11:06.055Z,12.32
2022-08-17T09:13:44.398Z,12.88
2022-08-17T09:16:20.228Z,12.73
2022-08-17T09:19:03.265Z,13.60
2022-08-17T09:21:48.468Z,11.88
2022-08-17T09:24:24.253Z,12.35
2022-08-17T09:27:00.005Z,13.43
2022-08-17T09:29:32.550Z,12.50
2022-08-17T09:32:03.902Z,13.13
2022-08-17T09:34:36.502Z,13.60
2022-08-17T09:37:18.969Z,11.50
2022-08-17T09:39:56.591Z,11.75
2022-08-17T09:42:31.115Z,12.02
2022-08-17T09:45:08.687Z,12.70
2022-08-17T09:47:45.519Z,11.73
2022-08-17T09:51:05.262Z,12.27
2022-08-17T09:53:10.287Z,11.32
2022-08-17T09:56:04.281Z,12.43
2022-08-17T09:58:47.651Z,11.60
2022-08-17T10:01:31.591Z,11.30
2022-08-17T10:04:29.290Z,11.15
2022-08-17T10:07:06.774Z,9.38
2022-08-17T10:09:45.672Z,10.05
2022-08-17T10:12:29.988Z,9.02
2022-08-17T10:15:17.440Z,8.77
2022-08-17T10:17:59.916Z,9.00
2022-08-17T10:20:34.211Z,8.40
2022-08-17T10:23:25.030Z,8.43
2022-08-17T10:26:16.948Z,10.48
2022-08-17T10:28:51.187Z,7.93
2022-08-17T10:31:36.229Z,6.68
2022-08-17T10:34:27.235Z,7.28
2022-08-17T10:37:07.566Z,7.30
2022-08-17T10:39:51.913Z,7.28
2022-08-17T10:42:30.287Z,6.72
2022-08-17T10:45:06.544Z,10.48
2022-08-17T10:48:04.291Z,7.60
2022-08-17T10:51:08.940Z,7.85
2022-08-17T10:53:58.862Z,7.90
2022-08-17T10:56:45.214Z,8.70
2022-08-17T10:59:55.418Z,7.45
2022-08-17T11:02:31.612Z,7.68
2022-08-17T11:05:15.806Z,7.70
2022-08-17T11:08:05.619Z,7.05
2022-08-17T11:10:52.342Z,8.20
2022-08-17T11:13:33.774Z,7.35
2022-08-17T11:16:18.593Z,6.97
2022-08-17T11:19:10.294Z,7.20
2022-08-17T11:22:00.949Z,6.97
2022-08-17T11:24:37.052Z,7.82
2022-08-17T11:27:12.110Z,7.22
2022-08-17T11:29:58.087Z,7.10
2022-08-17T11:32:37.691Z,6.55
2022-08-17T11:35:22.593Z,6.85
2022-08-17T11:38:02.878Z,6.60
2022-08-17T11:41:04.406Z,6.93
2022-08-17T11:44:16.558Z,6.82
2022-08-17T11:47:16.775Z,5.38
2022-08-17T11:50:21.632Z,7.88
2022-08-17T11:52:52.691Z,5.90
2022-08-17T11:55:54.026Z,12.27
2022-08-17T11:58:40.087Z,5.82
2022-08-17T12:01:09.672Z,6.85
2022-08-17T12:03:55.642Z,5.63
2022-08-17T12:06:54.833Z,6.82
2022-08-17T12:09:26.416Z,6.32
2022-08-17T12:12:13.374Z,8.27
2022-08-17T12:17:40.939Z,6.50
2022-08-17T12:20:15.276Z,7.18
2022-08-17T12:22:54.818Z,5.88
2022-08-17T12:25:33.253Z,5.45
2022-08-17T12:28:06.030Z,7.55
2022-08-17T12:30:36.581Z,5.93
2022-08-17T12:33:04.660Z,9.60
2022-08-17T12:35:35.170Z,5.93
2022-08-17T12:38:32.164Z,5.63
2022-08-17T12:40:59.618Z,5.88
2022-08-17T12:43:33.007Z,5.65
2022-08-17T12:46:12.956Z,6.53
2022-08-17T12:48:59.954Z,7.18
2022-08-17T12:51:29.994Z,8.30
2022-08-17T12:53:59.628Z,5.70
2022-08-17T12:56:27.452Z,9.15
2022-08-17T12:58:55.602Z,6.95
2022-08-17T13:01:26.105Z,8.32
2022-08-17T13:03:59.734Z,6.82
2022-08-17T13:06:31.595Z,8.10
2022-08-17T13:09:10.740Z,6.97
2022-08-17T13:11:48.107Z,8.50
2022-08-17T13:14:18.406Z,7.50
2022-08-17T13:16:53.677Z,8.65
2022-08-17T13:19:32.958Z,7.10
2022-08-17T13:22:12.484Z,7.15
2022-08-17T13:24:53.221Z,8.43
2022-08-17T13:27:23.627Z,7.45
2022-08-17T13:29:55.805Z,6.15
2022-08-17T13:32:35.112Z,6.47
2022-08-17T13:35:28.372Z,5.90
2022-08-17T13:38:02.488Z,5.82
2022-08-17T13:40:37.704Z,6.97
2022-08-17T13:43:06.335Z,7.25
2022-08-17T13:45:50.639Z,6.63
2022-08-17T13:48:28.393Z,8.57
2022-08-17T13:51:15.232Z,8.23
2022-08-17T13:54:02.246Z,7.97
2022-08-17T13:56:52.817Z,7.95
2022-08-17T13:59:52.748Z,6.10
2022-08-17T14:02:20.524Z,6.72
2022-08-17T14:04:49.390Z,7.22
2022-08-17T14:07:29.470Z,6.88
2022-08-17T14:10:01.371Z,7.22
2022-08-17T14:12:34.278Z,7.03
2022-08-17T14:15:03.170Z,7.15
2022-08-17T14:17:37.954Z,6.80
2022-08-17T14:20:09.369Z,5.82
2022-08-17T14:22:39.825Z,9.48
2022-08-17T14:25:10.616Z,6.40
2022-08-17T14:27:47.121Z,6.22
2022-08-17T14:30:23.958Z,6.10
2022-08-17T14:32:52.876Z,6.85
2022-08-17T14:35:23.250Z,7.05
2022-08-17T14:37:51.561Z,8.02
2022-08-17T14:40:25.160Z,5.55
2022-08-17T14:42:56.025Z,8.38
2022-08-17T14:45:32.892Z,7.30
2022-08-17T14:48:04.062Z,7.10
2022-08-17T14:50:35.457Z,6.07
2022-08-17T14:53:04.616Z,8.50
2022-08-17T14:55:32.843Z,8.18
2022-08-17T14:58:04.005Z,7.57
2022-08-17T15:00:32.116Z,8.63
2022-08-17T15:03:01.636Z,10.25
2022-08-17T15:05:35.130Z,7.20
2022-08-17T15:08:04.605Z,6.38
2022-08-17T15:10:33.015Z,6.43
2022-08-17T15:13:02.487Z,7.28
2022-08-17T15:15:31.302Z,6.60
2022-08-17T15:17:59.871Z,10.38
2022-08-17T15:20:30.037Z,9.52
2022-08-17T15:22:59.337Z,8.50
2022-08-17T15:25:29.527Z,9.00
2022-08-17T15:27:57.554Z,6.57
2022-08-17T15:30:27.416Z,7.20
2022-08-17T15:32:55.847Z,6.88
2022-08-17T15:35:27.784Z,9.75
2022-08-17T15:37:57.991Z,6.88
2022-08-17T15:40:26.256Z,5.88
2022-08-17T15:42:54.268Z,5.80
2022-08-17T15:45:24.838Z,7.47
2022-08-17T15:47:54.351Z,5.82
2022-08-17T15:50:22.480Z,7.03
2022-08-17T15:52:58.116Z,6.35
2022-08-17T15:55:27.993Z,7.43
2022-08-17T15:57:56.051Z,8.45
2022-08-17T16:00:24.908Z,6.22
2022-08-17T16:03:44.716Z,6.38
2022-08-17T16:05:42.681Z,9.52
2022-08-17T16:08:11.095Z,6.40
2022-08-17T16:10:39.186Z,6.40
2022-08-17T16:13:17.826Z,7.32
2022-08-17T16:15:56.622Z,6.10
2022-08-17T16:18:31.093Z,7.30
2022-08-17T16:21:21.481Z,6.07
2022-08-17T16:23:51.499Z,6.00
2022-08-17T16:26:19.882Z,6.75
2022-08-17T16:28:47.811Z,5.78
2022-08-17T16:31:16.755Z,5.88
2022-08-17T16:34:15.530Z,7.07
2022-08-17T16:36:35.919Z,6.72
2022-08-17T16:39:04.735Z,6.68
2022-08-17T16:41:45.310Z,6.35
2022-08-17T16:44:15.552Z,6.38
2022-08-17T16:46:45.408Z,6.82
2022-08-17T16:49:35.509Z,7.32
2022-08-17T16:52:05.819Z,8.70
2022-08-17T16:54:35.759Z,6.93
2022-08-17T16:57:05.238Z,10.60
2022-08-17T16:59:42.162Z,7.00
2022-08-17T17:02:13.891Z,7.30
2022-08-17T17:04:53.340Z,6.50
2022-08-17T17:07:39.391Z,6.85
2022-08-17T17:10:11.885Z,6.70
2022-08-17T17:13:02.899Z,8.25
2022-08-17T17:15:38.229Z,6.68
2022-08-17T17:18:07.855Z,7.68
2022-08-17T17:20:45.783Z,8.35
2022-08-17T17:23:28.869Z,8.73
2022-08-17T17:26:04.073Z,7.55
2022-08-17T17:28:44.320Z,6.70
2022-08-17T17:31:15.639Z,6.93
2022-08-17T17:33:48.380Z,9.05
2022-08-17T17:36:25.533Z,7.25
2022-08-17T17:38:57.495Z,7.38
2022-08-17T17:41:35.267Z,7.30
2022-08-17T17:44:07.981Z,8.20
2022-08-17T17:46:39.368Z,6.97
2022-08-17T17:49:10.256Z,7.65
2022-08-17T17:52:07.900Z,6.65
2022-08-17T17:54:54.089Z,7.47
2022-08-17T17:57:30.329Z,7.05
2022-08-17T18:00:08.263Z,7.22
2022-08-17T18:02:52.232Z,6.93
2022-08-17T18:05:41.710Z,7.00
2022-08-17T18:08:52.873Z,8.90
2022-08-17T18:11:35.160Z,7.13
2022-08-17T18:14:15.426Z,7.88
2022-08-17T18:16:44.116Z,7.72
2022-08-17T18:19:15.157Z,8.07
2022-08-17T18:21:47.028Z,14.25
2022-08-17T18:24:17.264Z,7.30
2022-08-17T18:26:55.092Z,7.80
2022-08-17T18:29:45.432Z,8.00
2022-08-17T18:32:37.844Z,8.30
2022-08-17T18:35:30.138Z,11.50
2022-08-17T18:38:20.337Z,11.48
2022-08-17T18:41:00.264Z,10.88
2022-08-17T18:43:43.835Z,10.93
2022-08-17T18:46:30.407Z,11.05
2022-08-17T18:49:01.142Z,11.57
2022-08-17T18:51:40.804Z,11.43
2022-08-17T18:54:22.895Z,11.55
2022-08-17T18:56:54.842Z,11.88
2022-08-17T18:59:28.977Z,11.07
2022-08-17T19:02:36.102Z,11.50
2022-08-17T19:05:13.591Z,11.60
2022-08-17T19:07:44.218Z,12.32
2022-08-17T19:10:19.410Z,12.98
2022-08-17T19:12:52.806Z,12.07
2022-08-17T19:15:28.400Z,12.00
2022-08-17T19:18:01.777Z,12.23
2022-08-17T19:20:33.947Z,13.18
2022-08-17T19:23:08.018Z,17.65
2022-08-17T19:25:39.820Z,13.52
2022-08-17T19:28:22.321Z,12.07
2022-08-17T19:30:55.869Z,12.93
2022-08-17T19:33:24.161Z,12.68
2022-08-17T19:36:03.137Z,13.02
2022-08-17T19:38:50.238Z,14.65
2022-08-17T19:41:26.257Z,12.77
2022-08-17T19:44:09.568Z,13.10
2022-08-17T19:46:48.617Z,13.43
2022-08-17T19:49:32.932Z,13.52
2022-08-17T19:52:16.796Z,14.48
2022-08-17T19:54:52.421Z,14.43
2022-08-17T19:57:29.251Z,14.30
2022-08-17T20:00:03.371Z,14.32
2022-08-17T20:02:37.810Z,13.60
2022-08-17T20:05:12.627Z,13.70
2022-08-17T20:07:46.553Z,14.63
2022-08-17T20:10:21.588Z,14.40
2022-08-17T20:12:53.381Z,15.10
2022-08-17T20:15:28.400Z,14.18
2022-08-17T20:18:01.010Z,14.48
2022-08-17T20:20:35.920Z,14.55
2022-08-17T20:23:11.666Z,15.30
2022-08-17T20:25:47.241Z,18.23
2022-08-17T20:28:24.092Z,16.92
2022-08-17T20:30:53.676Z,15.23
2022-08-17T20:33:27.586Z,14.32
2022-08-17T20:36:13.108Z,14.80
2022-08-17T20:38:44.612Z,14.02
2022-08-17T20:41:16.631Z,14.95
2022-08-17T20:43:51.211Z,16.58
2022-08-17T20:46:45.016Z,14.80
2022-08-17T20:49:24.291Z,14.85
2022-08-17T20:52:01.538Z,16.35
2022-08-17T20:54:49.660Z,16.38
2022-08-17T20:57:48.904Z,15.27
2022-08-17T21:00:51.332Z,15.95
2022-08-17T21:03:51.085Z,15.85
2022-08-17T21:06:22.827Z,15.60
2022-08-17T21:08:57.995Z,16.30
2022-08-17T21:12:03.289Z,15.98
2022-08-17T21:14:45.738Z,16.27
2022-08-17T21:17:31.252Z,16.55
2022-08-17T21:20:11.975Z,14.77
2022-08-17T21:22:53.301Z,15.25
2022-08-17T21:25:48.222Z,15.30
2022-08-17T21:28:30.112Z,15.27
2022-08-17T21:31:09.230Z,17.38
2022-08-17T21:33:39.132Z,14.13
2022-08-17T21:36:26.141Z,14.73
2022-08-17T21:39:01.543Z,13.70
2022-08-17T21:41:33.443Z,14.45
2022-08-17T21:44:07.528Z,14.20
2022-08-17T21:46:39.740Z,14.05
2022-08-17T21:49:13.514Z,14.25
2022-08-17T21:51:46.490Z,13.43
2022-08-17T21:54:34.805Z,14.55
2022-08-17T21:57:05.594Z,13.05
2022-08-17T21:59:36.675Z,13.43
2022-08-17T22:02:08.926Z,14.68
2022-08-17T22:04:38.871Z,14.25
2022-08-17T22:07:10.943Z,13.85
2022-08-17T22:09:43.577Z,14.10
2022-08-17T22:12:13.702Z,13.48
2022-08-17T22:14:52.466Z,13.23
2022-08-17T22:17:25.360Z,13.68
2022-08-17T22:19:56.419Z,13.77
2022-08-17T22:22:35.208Z,13.80
2022-08-17T22:25:08.056Z,14.00
2022-08-17T22:27:50.675Z,14.77
2022-08-17T22:30:31.733Z,16.63
2022-08-17T22:33:00.647Z,14.20
2022-08-17T22:35:40.933Z,15.45
2022-08-17T22:38:33.333Z,15.38
2022-08-17T22:41:18.075Z,15.73
2022-08-17T22:43:46.264Z,14.80
2022-08-17T22:46:15.004Z,15.43
2022-08-17T22:48:48.925Z,13.98
2022-08-17T22:51:21.645Z,13.90
2022-08-17T22:54:11.504Z,13.88
2022-08-17T22:57:05.466Z,16.60
2022-08-17T22:59:39.266Z,14.95
2022-08-17T23:02:15.143Z,15.02
2022-08-17T23:04:45.658Z,14.60
2022-08-17T23:07:13.576Z,14.40
2022-08-17T23:09:42.983Z,14.50
2022-08-17T23:12:15.003Z,14.15
2022-08-17T23:14:46.006Z,14.25
2022-08-17T23:17:14.458Z,14.73
2022-08-17T23:19:42.869Z,13.95
2022-08-17T23:22:12.440Z,16.45
2022-08-17T23:24:45.322Z,17.25
2022-08-17T23:27:14.153Z,17.42
2022-08-17T23:29:42.497Z,16.42
2022-08-17T23:32:13.951Z,16.42
2022-08-17T23:34:44.319Z,17.33
2022-08-17T23:37:13.198Z,15.60
2022-08-17T23:39:45.151Z,17.92
2022-08-17T23:42:16.516Z,16.63
2022-08-17T23:44:44.775Z,16.48
2022-08-17T23:47:13.106Z,16.05
2022-08-17T23:49:41.385Z,16.77
2022-08-17T23:52:12.683Z,17.02
2022-08-17T23:54:47.674Z,17.73
2022-08-17T23:57:17.780Z,17.23
2022-08-17T23:59:48.874Z,18.60
